sensor_id;sensor_type;location;lat;lon;timestamp;pressure;altitude;pressure_sealevel;temperature;humidity
66689;BME280;53587;59.318;18.084;2023-05-24T00:01:00;101745.13;;;20.55;91.53
66689;BME280;53587;59.318;18.084;2023-05-24T00:03:26;101725.13;;;19.83;85.47
66689;BME280;53587;59.318;18.084;2023-05-24T00:05:54;101726.53;;;19.59;84.93
66689;BME280;53587;59.318;18.084;2023-05-24T00:08:20;101731.78;;;19.30;85.68
66689;BME280;53587;59.318;18.084;2023-05-24T00:10:46;101740.34;;;19.23;84.65
66689;BME280;53587;59.318;18.084;2023-05-24T00:13:12;101739.53;;;19.64;89.50
66689;BME280;53587;59.318;18.084;2023-05-24T00:15:39;101741.16;;;19.96;91.09
66689;BME280;53587;59.318;18.084;2023-05-24T00:18:04;101738.59;;;20.25;92.15
66689;BME280;53587;59.318;18.084;2023-05-24T00:20:29;101739.34;;;20.47;91.16
66689;BME280;53587;59.318;18.084;2023-05-24T00:22:55;101734.50;;;20.07;85.80
66689;BME280;53587;59.318;18.084;2023-05-24T00:25:20;101743.66;;;19.61;86.01
66689;BME280;53587;59.318;18.084;2023-05-24T00:27:45;101741.19;;;19.39;84.59
66689;BME280;53587;59.318;18.084;2023-05-24T00:30:11;101736.75;;;19.23;84.52
66689;BME280;53587;59.318;18.084;2023-05-24T00:32:36;101743.13;;;19.44;89.28
66689;BME280;53587;59.318;18.084;2023-05-24T00:35:01;101735.09;;;19.78;91.36
66689;BME280;53587;59.318;18.084;2023-05-24T00:37:27;101733.69;;;20.07;90.96
66689;BME280;53587;59.318;18.084;2023-05-24T00:39:53;101730.28;;;20.25;90.98
66689;BME280;53587;59.318;18.084;2023-05-24T00:42:18;101739.34;;;20.47;91.58
66689;BME280;53587;59.318;18.084;2023-05-24T00:44:44;101732.00;;;20.16;85.80
66689;BME280;53587;59.318;18.084;2023-05-24T00:47:10;101745.31;;;19.73;84.77
66689;BME280;53587;59.318;18.084;2023-05-24T00:49:35;101745.06;;;19.49;84.94
66689;BME280;53587;59.318;18.084;2023-05-24T00:52:00;101731.53;;;19.26;84.00
66689;BME280;53587;59.318;18.084;2023-05-24T00:54:26;101738.13;;;19.41;89.23
66689;BME280;53587;59.318;18.084;2023-05-24T00:56:52;101738.94;;;19.77;91.46
66689;BME280;53587;59.318;18.084;2023-05-24T00:59:17;101737.53;;;20.06;92.03
66689;BME280;53587;59.318;18.084;2023-05-24T01:01:43;101738.88;;;20.24;91.10
66689;BME280;53587;59.318;18.084;2023-05-24T01:04:11;101742.16;;;20.36;90.55
66689;BME280;53587;59.318;18.084;2023-05-24T01:09:27;101743.38;;;19.89;84.82
66689;BME280;53587;59.318;18.084;2023-05-24T01:19:56;101749.47;;;19.65;90.59
66689;BME280;53587;59.318;18.084;2023-05-24T01:27:52;101740.50;;;20.35;89.91
66689;BME280;53587;59.318;18.084;2023-05-24T01:30:18;101737.44;;;20.47;89.08
66689;BME280;53587;59.318;18.084;2023-05-24T01:32:44;101751.22;;;20.57;90.75
66689;BME280;53587;59.318;18.084;2023-05-24T01:35:10;101748.38;;;20.68;90.43
66689;BME280;53587;59.318;18.084;2023-05-24T01:37:35;101746.16;;;19.84;85.08
66689;BME280;53587;59.318;18.084;2023-05-24T01:40:00;101745.88;;;19.49;84.87
66689;BME280;53587;59.318;18.084;2023-05-24T01:42:28;101745.34;;;19.31;85.22
66689;BME280;53587;59.318;18.084;2023-05-24T01:45:13;101745.59;;;19.14;86.46
66689;BME280;53587;59.318;18.084;2023-05-24T01:50:19;101747.81;;;19.95;90.39
66689;BME280;53587;59.318;18.084;2023-05-24T01:52:46;101751.09;;;20.18;92.36
66689;BME280;53587;59.318;18.084;2023-05-24T01:55:14;101749.38;;;20.37;90.75
66689;BME280;53587;59.318;18.084;2023-05-24T01:57:41;101747.91;;;20.50;89.28
66689;BME280;53587;59.318;18.084;2023-05-24T02:00:08;101757.06;;;20.51;89.39
66689;BME280;53587;59.318;18.084;2023-05-24T02:02:34;101752.25;;;19.81;85.20
66689;BME280;53587;59.318;18.084;2023-05-24T02:04:59;101753.91;;;19.56;84.47
66689;BME280;53587;59.318;18.084;2023-05-24T02:07:24;101753.34;;;19.33;84.45
66689;BME280;53587;59.318;18.084;2023-05-24T02:09:50;101753.59;;;19.16;85.73
66689;BME280;53587;59.318;18.084;2023-05-24T02:12:15;101755.28;;;19.58;90.79
66689;BME280;53587;59.318;18.084;2023-05-24T02:14:41;101769.41;;;19.88;91.90
66689;BME280;53587;59.318;18.084;2023-05-24T02:17:06;101765.47;;;20.09;91.69
66689;BME280;53587;59.318;18.084;2023-05-24T02:19:31;101771.25;;;20.23;90.56
66689;BME280;53587;59.318;18.084;2023-05-24T02:21:58;101771.50;;;20.37;92.23
66689;BME280;53587;59.318;18.084;2023-05-24T02:24:23;101775.88;;;20.54;91.14
66689;BME280;53587;59.318;18.084;2023-05-24T02:26:50;101777.06;;;20.27;85.73
66689;BME280;53587;59.318;18.084;2023-05-24T02:29:15;101779.63;;;19.77;84.27
66689;BME280;53587;59.318;18.084;2023-05-24T02:31:40;101778.50;;;19.42;84.86
66689;BME280;53587;59.318;18.084;2023-05-24T02:34:05;101780.97;;;19.28;84.29
66689;BME280;53587;59.318;18.084;2023-05-24T02:36:31;101789.25;;;19.38;88.30
66689;BME280;53587;59.318;18.084;2023-05-24T02:38:58;101784.31;;;19.71;91.33
66689;BME280;53587;59.318;18.084;2023-05-24T02:41:23;101791.50;;;20.03;92.62
66689;BME280;53587;59.318;18.084;2023-05-24T02:43:48;101778.72;;;20.28;90.98
66689;BME280;53587;59.318;18.084;2023-05-24T02:46:14;101785.84;;;20.44;92.10
66689;BME280;53587;59.318;18.084;2023-05-24T02:48:39;101779.47;;;20.59;89.82
66689;BME280;53587;59.318;18.084;2023-05-24T02:51:04;101793.75;;;19.86;85.54
66689;BME280;53587;59.318;18.084;2023-05-24T02:53:30;101792.88;;;19.70;85.51
66689;BME280;53587;59.318;18.084;2023-05-24T02:55:56;101787.06;;;19.40;85.01
66689;BME280;53587;59.318;18.084;2023-05-24T02:58:21;101792.84;;;19.28;86.41
66689;BME280;53587;59.318;18.084;2023-05-24T03:00:47;101796.19;;;19.67;90.52
66689;BME280;53587;59.318;18.084;2023-05-24T03:03:12;101783.22;;;19.93;92.14
66689;BME280;53587;59.318;18.084;2023-05-24T03:05:37;101782.63;;;20.17;91.23
66689;BME280;53587;59.318;18.084;2023-05-24T03:08:02;101779.81;;;20.27;90.62
66689;BME280;53587;59.318;18.084;2023-05-24T03:10:28;101787.53;;;20.40;89.82
66689;BME280;53587;59.318;18.084;2023-05-24T03:12:53;101785.31;;;20.48;90.54
66689;BME280;53587;59.318;18.084;2023-05-24T03:15:18;101786.38;;;20.62;91.62
66689;BME280;53587;59.318;18.084;2023-05-24T03:17:43;101790.25;;;20.56;89.19
66689;BME280;53587;59.318;18.084;2023-05-24T03:20:09;101791.50;;;19.83;84.96
66689;BME280;53587;59.318;18.084;2023-05-24T03:22:35;101788.47;;;19.58;85.30
66689;BME280;53587;59.318;18.084;2023-05-24T03:25:00;101788.72;;;19.41;84.47
66689;BME280;53587;59.318;18.084;2023-05-24T03:27:26;101795.06;;;19.26;88.02
66689;BME280;53587;59.318;18.084;2023-05-24T03:29:51;101796.47;;;19.70;91.17
66689;BME280;53587;59.318;18.084;2023-05-24T03:32:16;101796.19;;;19.98;92.06
66689;BME280;53587;59.318;18.084;2023-05-24T03:34:41;101800.06;;;20.17;91.15
66689;BME280;53587;59.318;18.084;2023-05-24T03:37:06;101789.78;;;20.28;90.16
66689;BME280;53587;59.318;18.084;2023-05-24T03:39:32;101783.66;;;20.41;89.17
66689;BME280;53587;59.318;18.084;2023-05-24T03:41:57;101789.16;;;20.52;90.57
66689;BME280;53587;59.318;18.084;2023-05-24T03:44:22;101790.22;;;20.66;91.94
66689;BME280;53587;59.318;18.084;2023-05-24T03:46:47;101784.16;;;20.59;87.33
66689;BME280;53587;59.318;18.084;2023-05-24T03:49:12;101785.97;;;19.83;84.10
66689;BME280;53587;59.318;18.084;2023-05-24T03:51:38;101777.66;;;19.57;83.76
66689;BME280;53587;59.318;18.084;2023-05-24T03:54:03;101772.16;;;19.31;84.98
66689;BME280;53587;59.318;18.084;2023-05-24T03:56:28;101771.31;;;19.30;87.55
66689;BME280;53587;59.318;18.084;2023-05-24T03:58:53;101765.53;;;19.68;91.17
66689;BME280;53587;59.318;18.084;2023-05-24T04:01:19;101754.47;;;19.94;90.79
66689;BME280;53587;59.318;18.084;2023-05-24T04:03:44;101759.94;;;20.09;90.28
66689;BME280;53587;59.318;18.084;2023-05-24T04:06:11;101751.31;;;20.32;90.38
66689;BME280;53587;59.318;18.084;2023-05-24T04:08:36;101749.88;;;20.44;88.89
66689;BME280;53587;59.318;18.084;2023-05-24T04:11:01;101746.50;;;20.58;90.44
66689;BME280;53587;59.318;18.084;2023-05-24T04:13:26;101737.72;;;20.40;85.89
66689;BME280;53587;59.318;18.084;2023-05-24T04:15:52;101742.28;;;19.85;83.97
66689;BME280;53587;59.318;18.084;2023-05-24T04:18:17;101737.59;;;19.49;84.98
66689;BME280;53587;59.318;18.084;2023-05-24T04:20:42;101740.63;;;19.22;84.19
66689;BME280;53587;59.318;18.084;2023-05-24T04:23:07;101741.47;;;19.33;87.86
66689;BME280;53587;59.318;18.084;2023-05-24T04:25:32;101738.41;;;19.65;91.07
66689;BME280;53587;59.318;18.084;2023-05-24T04:27:58;101733.44;;;19.93;91.82
66689;BME280;53587;59.318;18.084;2023-05-24T04:30:24;101727.31;;;20.11;91.12
66689;BME280;53587;59.318;18.084;2023-05-24T04:32:49;101735.00;;;20.25;89.55
66689;BME280;53587;59.318;18.084;2023-05-24T04:35:15;101724.44;;;20.37;89.47
66689;BME280;53587;59.318;18.084;2023-05-24T04:37:40;101721.63;;;20.48;91.04
66689;BME280;53587;59.318;18.084;2023-05-24T04:40:06;101739.00;;;20.64;91.29
66689;BME280;53587;59.318;18.084;2023-05-24T04:42:32;101731.13;;;20.26;84.96
66689;BME280;53587;59.318;18.084;2023-05-24T04:44:57;101739.25;;;19.66;84.27
66689;BME280;53587;59.318;18.084;2023-05-24T04:47:23;101742.84;;;19.35;84.45
66689;BME280;53587;59.318;18.084;2023-05-24T04:49:48;101740.91;;;19.20;84.62
66689;BME280;53587;59.318;18.084;2023-05-24T04:52:14;101751.13;;;19.40;88.55
66689;BME280;53587;59.318;18.084;2023-05-24T04:54:40;101748.38;;;19.71;91.11
66689;BME280;53587;59.318;18.084;2023-05-24T04:57:05;101751.13;;;19.97;92.20
66689;BME280;53587;59.318;18.084;2023-05-24T04:59:30;101753.88;;;20.13;90.69
66689;BME280;53587;59.318;18.084;2023-05-24T05:01:55;101756.03;;;20.26;89.86
66689;BME280;53587;59.318;18.084;2023-05-24T05:04:21;101762.91;;;20.39;90.55
66689;BME280;53587;59.318;18.084;2023-05-24T05:06:46;101767.28;;;20.55;88.98
66689;BME280;53587;59.318;18.084;2023-05-24T05:09:12;101752.75;;;20.08;83.38
66689;BME280;53587;59.318;18.084;2023-05-24T05:11:38;101764.69;;;19.68;84.65
66689;BME280;53587;59.318;18.084;2023-05-24T05:14:04;101765.25;;;19.59;85.14
66689;BME280;53587;59.318;18.084;2023-05-24T05:16:30;101768.00;;;19.65;86.01
66689;BME280;53587;59.318;18.084;2023-05-24T05:18:55;101773.25;;;20.13;90.19
66689;BME280;53587;59.318;18.084;2023-05-24T05:21:21;101778.91;;;20.57;91.05
66689;BME280;53587;59.318;18.084;2023-05-24T05:23:46;101789.72;;;20.49;86.21
66689;BME280;53587;59.318;18.084;2023-05-24T05:26:11;101787.53;;;20.40;86.18
66689;BME280;53587;59.318;18.084;2023-05-24T05:28:36;101791.38;;;20.44;86.12
66689;BME280;53587;59.318;18.084;2023-05-24T05:31:02;101789.47;;;20.45;85.54
66689;BME280;53587;59.318;18.084;2023-05-24T05:33:27;101798.22;;;20.68;87.33
66689;BME280;53587;59.318;18.084;2023-05-24T05:35:52;101794.28;;;20.89;87.17
66689;BME280;53587;59.318;18.084;2023-05-24T05:38:17;101801.09;;;21.07;88.12
66689;BME280;53587;59.318;18.084;2023-05-24T05:40:43;101804.97;;;21.12;87.26
66689;BME280;53587;59.318;18.084;2023-05-24T05:43:08;101816.63;;;21.14;86.20
66689;BME280;53587;59.318;18.084;2023-05-24T05:45:33;101812.16;;;21.18;86.87
66689;BME280;53587;59.318;18.084;2023-05-24T05:47:58;101818.25;;;21.20;86.24
66689;BME280;53587;59.318;18.084;2023-05-24T05:50:24;101820.38;;;21.28;86.83
66689;BME280;53587;59.318;18.084;2023-05-24T05:52:49;101814.25;;;21.36;86.92
66689;BME280;53587;59.318;18.084;2023-05-24T05:55:14;101821.16;;;21.39;86.89
66689;BME280;53587;59.318;18.084;2023-05-24T05:57:39;101817.56;;;21.38;87.79
66689;BME280;53587;59.318;18.084;2023-05-24T06:00:05;101832.16;;;21.49;87.21
66689;BME280;53587;59.318;18.084;2023-05-24T06:02:31;101818.91;;;21.46;86.92
66689;BME280;53587;59.318;18.084;2023-05-24T06:04:56;101813.34;;;21.46;86.75
66689;BME280;53587;59.318;18.084;2023-05-24T06:07:21;101813.34;;;21.46;85.55
66689;BME280;53587;59.318;18.084;2023-05-24T06:09:46;101813.59;;;21.50;86.79
66689;BME280;53587;59.318;18.084;2023-05-24T06:12:11;101811.34;;;21.52;85.47
66689;BME280;53587;59.318;18.084;2023-05-24T06:14:37;101819.72;;;21.47;85.80
66689;BME280;53587;59.318;18.084;2023-05-24T06:17:03;101826.63;;;21.49;85.99
66689;BME280;53587;59.318;18.084;2023-05-24T06:19:28;101821.31;;;21.58;86.30
66689;BME280;53587;59.318;18.084;2023-05-24T06:21:53;101819.97;;;21.50;86.47
66689;BME280;53587;59.318;18.084;2023-05-24T06:24:18;101818.03;;;21.56;85.46
66689;BME280;53587;59.318;18.084;2023-05-24T06:26:47;101814.66;;;21.54;86.30
66689;BME280;53587;59.318;18.084;2023-05-24T06:29:12;101813.00;;;21.53;85.24
66689;BME280;53587;59.318;18.084;2023-05-24T06:31:38;101815.50;;;21.54;85.68
66689;BME280;53587;59.318;18.084;2023-05-24T06:34:03;101814.38;;;21.61;86.65
66689;BME280;53587;59.318;18.084;2023-05-24T06:36:29;101816.91;;;21.52;85.33
66689;BME280;53587;59.318;18.084;2023-05-24T06:38:54;101816.34;;;21.55;86.14
66689;BME280;53587;59.318;18.084;2023-05-24T06:41:20;101815.78;;;21.53;85.57
66689;BME280;53587;59.318;18.084;2023-05-24T06:43:45;101815.25;;;21.56;85.76
66689;BME280;53587;59.318;18.084;2023-05-24T06:46:10;101818.28;;;21.60;86.87
66689;BME280;53587;59.318;18.084;2023-05-24T06:48:35;101807.44;;;21.58;85.70
66689;BME280;53587;59.318;18.084;2023-05-24T06:51:01;101811.09;;;21.53;86.41
66689;BME280;53587;59.318;18.084;2023-05-24T06:53:26;101804.44;;;21.49;86.06
66689;BME280;53587;59.318;18.084;2023-05-24T06:55:51;101812.50;;;21.51;86.49
66689;BME280;53587;59.318;18.084;2023-05-24T06:58:16;101807.47;;;21.53;86.24
66689;BME280;53587;59.318;18.084;2023-05-24T07:00:42;101815.00;;;21.47;85.14
66689;BME280;53587;59.318;18.084;2023-05-24T07:03:07;101814.22;;;21.42;86.07
66689;BME280;53587;59.318;18.084;2023-05-24T07:05:33;101815.75;;;21.58;85.67
66689;BME280;53587;59.318;18.084;2023-05-24T07:07:59;101818.84;;;21.51;85.99
66689;BME280;53587;59.318;18.084;2023-05-24T07:10:24;101821.63;;;21.51;85.68
66689;BME280;53587;59.318;18.084;2023-05-24T07:12:50;101820.25;;;21.49;85.13
66689;BME280;53587;59.318;18.084;2023-05-24T07:15:16;101831.38;;;21.44;86.84
66689;BME280;53587;59.318;18.084;2023-05-24T07:17:41;101824.16;;;21.48;85.55
66689;BME280;53587;59.318;18.084;2023-05-24T07:20:06;101825.81;;;21.49;85.94
66689;BME280;53587;59.318;18.084;2023-05-24T07:22:34;101831.88;;;21.56;86.10
66689;BME280;53587;59.318;18.084;2023-05-24T07:24:59;101830.81;;;21.47;85.44
66689;BME280;53587;59.318;18.084;2023-05-24T07:27:25;101835.78;;;21.50;85.99
66689;BME280;53587;59.318;18.084;2023-05-24T07:29:50;101824.69;;;21.50;85.03
66689;BME280;53587;59.318;18.084;2023-05-24T07:32:16;101828.84;;;21.52;86.08
66689;BME280;53587;59.318;18.084;2023-05-24T07:34:41;101826.09;;;21.47;85.95
66689;BME280;53587;59.318;18.084;2023-05-24T07:37:07;101825.50;;;21.50;86.25
66689;BME280;53587;59.318;18.084;2023-05-24T07:39:32;101825.81;;;21.49;86.54
66689;BME280;53587;59.318;18.084;2023-05-24T07:41:58;101825.75;;;21.54;85.64
66689;BME280;53587;59.318;18.084;2023-05-24T07:44:23;101823.59;;;21.51;86.30
66689;BME280;53587;59.318;18.084;2023-05-24T07:46:48;101818.84;;;21.51;86.55
66689;BME280;53587;59.318;18.084;2023-05-24T07:49:13;101823.28;;;21.52;86.24
66689;BME280;53587;59.318;18.084;2023-05-24T07:51:39;101818.03;;;21.56;86.28
66689;BME280;53587;59.318;18.084;2023-05-24T07:54:04;101820.22;;;21.54;85.95
66689;BME280;53587;59.318;18.084;2023-05-24T07:56:29;101824.66;;;21.55;86.29
66689;BME280;53587;59.318;18.084;2023-05-24T07:58:56;101822.97;;;21.59;85.66
66689;BME280;53587;59.318;18.084;2023-05-24T08:01:27;101821.31;;;21.53;86.85
66689;BME280;53587;59.318;18.084;2023-05-24T08:03:52;101821.88;;;21.55;86.57
66689;BME280;53587;59.318;18.084;2023-05-24T08:06:18;101822.44;;;21.52;86.42
66689;BME280;53587;59.318;18.084;2023-05-24T08:08:43;101826.34;;;21.51;85.99
66689;BME280;53587;59.318;18.084;2023-05-24T08:11:09;101814.66;;;21.54;85.70
66689;BME280;53587;59.318;18.084;2023-05-24T08:13:35;101821.06;;;21.54;86.13
66689;BME280;53587;59.318;18.084;2023-05-24T08:16:00;101818.84;;;21.57;86.21
66689;BME280;53587;59.318;18.084;2023-05-24T08:18:25;101827.97;;;21.52;85.62
66689;BME280;53587;59.318;18.084;2023-05-24T08:20:51;101824.66;;;21.55;86.27
66689;BME280;53587;59.318;18.084;2023-05-24T08:23:17;101828.53;;;21.54;85.87
66689;BME280;53587;59.318;18.084;2023-05-24T08:25:42;101826.88;;;21.53;86.13
66689;BME280;53587;59.318;18.084;2023-05-24T08:28:07;101821.31;;;21.58;86.97
66689;BME280;53587;59.318;18.084;2023-05-24T08:30:34;101818.28;;;21.54;86.27
66689;BME280;53587;59.318;18.084;2023-05-24T08:33:01;101816.63;;;21.53;86.56
66689;BME280;53587;59.318;18.084;2023-05-24T08:35:26;101809.41;;;21.58;85.95
66689;BME280;53587;59.318;18.084;2023-05-24T08:37:51;101809.47;;;21.47;86.26
66689;BME280;53587;59.318;18.084;2023-05-24T08:40:16;101812.47;;;21.56;86.60
66689;BME280;53587;59.318;18.084;2023-05-24T08:42:42;101813.56;;;21.55;86.65
66689;BME280;53587;59.318;18.084;2023-05-24T08:45:12;101810.78;;;21.55;86.87
66689;BME280;53587;59.318;18.084;2023-05-24T08:47:37;101811.06;;;21.59;85.42
66689;BME280;53587;59.318;18.084;2023-05-24T08:50:03;101806.94;;;21.56;86.17
66689;BME280;53587;59.318;18.084;2023-05-24T08:52:30;101812.47;;;21.56;86.49
66689;BME280;53587;59.318;18.084;2023-05-24T08:54:57;101821.88;;;21.55;86.08
66689;BME280;53587;59.318;18.084;2023-05-24T08:57:22;101810.22;;;21.58;86.25
66689;BME280;53587;59.318;18.084;2023-05-24T08:59:48;101811.88;;;21.59;85.93
66689;BME280;53587;59.318;18.084;2023-05-24T09:02:14;101813.00;;;21.53;86.42
66689;BME280;53587;59.318;18.084;2023-05-24T09:04:40;101815.22;;;21.61;85.96
66689;BME280;53587;59.318;18.084;2023-05-24T09:07:06;101804.59;;;21.68;85.63
66689;BME280;53587;59.318;18.084;2023-05-24T09:09:31;101809.41;;;21.52;85.30
66689;BME280;53587;59.318;18.084;2023-05-24T09:11:58;101798.03;;;21.54;84.87
66689;BME280;53587;59.318;18.084;2023-05-24T09:14:26;101800.34;;;21.42;86.26
66689;BME280;53587;59.318;18.084;2023-05-24T09:16:51;101797.72;;;21.55;85.66
66689;BME280;53587;59.318;18.084;2023-05-24T09:19:17;101804.81;;;21.37;85.61
66689;BME280;53587;59.318;18.084;2023-05-24T09:21:43;101794.25;;;21.39;86.05
66689;BME280;53587;59.318;18.084;2023-05-24T09:24:09;101797.00;;;21.45;84.69
66689;BME280;53587;59.318;18.084;2023-05-24T09:26:35;101787.28;;;21.47;86.21
66689;BME280;53587;59.318;18.084;2023-05-24T09:29:00;101797.00;;;21.45;85.36
66689;BME280;53587;59.318;18.084;2023-05-24T09:31:35;101787.88;;;21.39;85.52
66689;BME280;53587;59.318;18.084;2023-05-24T09:34:01;101785.94;;;21.39;85.86
66689;BME280;53587;59.318;18.084;2023-05-24T09:36:26;101787.28;;;21.42;85.69
66689;BME280;53587;59.318;18.084;2023-05-24T09:39:28;101786.53;;;21.36;86.50
66689;BME280;53587;59.318;18.084;2023-05-24T09:41:51;101779.91;;;21.32;85.40
66689;BME280;53587;59.318;18.084;2023-05-24T09:44:22;101780.13;;;21.36;85.68
66689;BME280;53587;59.318;18.084;2023-05-24T09:46:48;101778.75;;;21.38;86.24
66689;BME280;53587;59.318;18.084;2023-05-24T09:49:13;101779.91;;;21.32;85.81
66689;BME280;53587;59.318;18.084;2023-05-24T09:51:39;101782.38;;;21.34;85.84
66689;BME280;53587;59.318;18.084;2023-05-24T09:54:04;101779.66;;;21.29;85.24
66689;BME280;53587;59.318;18.084;2023-05-24T09:56:29;101780.47;;;21.29;85.54
66689;BME280;53587;59.318;18.084;2023-05-24T09:58:56;101785.44;;;21.32;85.24
66689;BME280;53587;59.318;18.084;2023-05-24T10:01:22;101777.13;;;21.32;85.41
66689;BME280;53587;59.318;18.084;2023-05-24T10:03:53;101781.28;;;21.30;85.42
66689;BME280;53587;59.318;18.084;2023-05-24T10:06:18;101787.63;;;21.35;85.26
66689;BME280;53587;59.318;18.084;2023-05-24T10:08:44;101784.06;;;21.30;85.19
66689;BME280;53587;59.318;18.084;2023-05-24T10:11:12;101783.19;;;21.34;84.67
66689;BME280;53587;59.318;18.084;2023-05-24T10:13:37;101787.63;;;21.35;85.73
66689;BME280;53587;59.318;18.084;2023-05-24T10:16:03;101780.97;;;21.36;85.34
66689;BME280;53587;59.318;18.084;2023-05-24T10:18:28;101777.69;;;21.29;85.06
66689;BME280;53587;59.318;18.084;2023-05-24T10:20:54;101782.63;;;21.37;86.36
66689;BME280;53587;59.318;18.084;2023-05-24T10:23:20;101790.41;;;21.35;85.03
66689;BME280;53587;59.318;18.084;2023-05-24T10:25:50;101786.78;;;21.40;85.44
66689;BME280;53587;59.318;18.084;2023-05-24T10:28:15;101777.09;;;21.37;85.14
66689;BME280;53587;59.318;18.084;2023-05-24T10:31:26;101776.50;;;21.40;85.36
66689;BME280;53587;59.318;18.084;2023-05-24T10:33:31;101764.03;;;21.38;85.86
66689;BME280;53587;59.318;18.084;2023-05-24T10:35:59;101765.16;;;21.37;85.00
66689;BME280;53587;59.318;18.084;2023-05-24T10:38:24;101769.78;;;21.47;86.13
66689;BME280;53587;59.318;18.084;2023-05-24T10:40:50;101760.72;;;21.41;85.19
66689;BME280;53587;59.318;18.084;2023-05-24T10:43:15;101760.47;;;21.37;85.04
66689;BME280;53587;59.318;18.084;2023-05-24T10:45:41;101754.31;;;21.40;85.55
66689;BME280;53587;59.318;18.084;2023-05-24T10:50:37;101764.03;;;21.38;85.49
66689;BME280;53587;59.318;18.084;2023-05-24T10:53:09;101764.91;;;21.33;84.61
66689;BME280;53587;59.318;18.084;2023-05-24T10:55:35;101762.69;;;21.35;85.87
66689;BME280;53587;59.318;18.084;2023-05-24T10:58:14;101762.94;;;21.39;86.38
66689;BME280;53587;59.318;18.084;2023-05-24T11:00:41;101757.94;;;21.36;85.24
66689;BME280;53587;59.318;18.084;2023-05-24T11:03:07;101752.19;;;21.32;85.40
66689;BME280;53587;59.318;18.084;2023-05-24T11:08:10;101756.53;;;21.44;86.29
66689;BME280;53587;59.318;18.084;2023-05-24T11:10:35;101752.91;;;21.43;84.90
66689;BME280;53587;59.318;18.084;2023-05-24T11:13:00;101744.63;;;21.38;85.18
66689;BME280;53587;59.318;18.084;2023-05-24T11:15:26;101751.03;;;21.33;86.03
66689;BME280;53587;59.318;18.084;2023-05-24T11:20:32;101746.63;;;21.32;84.96
66689;BME280;53587;59.318;18.084;2023-05-24T11:22:57;101749.38;;;21.37;85.06
66689;BME280;53587;59.318;18.084;2023-05-24T11:25:24;101743.22;;;21.40;84.88
66689;BME280;53587;59.318;18.084;2023-05-24T11:27:49;101746.06;;;21.35;85.25
66689;BME280;53587;59.318;18.084;2023-05-24T11:30:15;101742.16;;;21.36;85.11
66689;BME280;53587;59.318;18.084;2023-05-24T11:32:41;101732.19;;;21.35;85.95
66689;BME280;53587;59.318;18.084;2023-05-24T11:35:11;101726.59;;;21.40;85.02
66689;BME280;53587;59.318;18.084;2023-05-24T11:37:36;101721.09;;;21.35;85.44
66689;BME280;53587;59.318;18.084;2023-05-24T11:40:02;101715.25;;;21.37;85.18
66689;BME280;53587;59.318;18.084;2023-05-24T11:42:29;101720.56;;;21.33;85.54
66689;BME280;53587;59.318;18.084;2023-05-24T11:44:54;101712.88;;;21.25;85.18
66689;BME280;53587;59.318;18.084;2023-05-24T11:47:20;101724.22;;;21.29;84.64
66689;BME280;53587;59.318;18.084;2023-05-24T11:49:52;101727.38;;;21.46;85.64
66689;BME280;53587;59.318;18.084;2023-05-24T11:52:17;101717.75;;;21.38;84.96
66689;BME280;53587;59.318;18.084;2023-05-24T11:54:42;101719.38;;;21.39;85.28
66689;BME280;53587;59.318;18.084;2023-05-24T11:57:10;101709.16;;;21.40;85.38
66689;BME280;53587;59.318;18.084;2023-05-24T11:59:36;101710.59;;;21.32;85.15
66689;BME280;53587;59.318;18.084;2023-05-24T12:02:03;101706.94;;;21.37;86.02
66689;BME280;53587;59.318;18.084;2023-05-24T12:04:29;101701.13;;;21.38;84.61
66689;BME280;53587;59.318;18.084;2023-05-24T12:06:55;101702.75;;;21.39;85.40
66689;BME280;53587;59.318;18.084;2023-05-24T12:09:21;101707.47;;;21.39;85.82
66689;BME280;53587;59.318;18.084;2023-05-24T12:11:47;101695.56;;;21.38;85.16
66689;BME280;53587;59.318;18.084;2023-05-24T12:14:14;101698.06;;;21.40;86.19
66689;BME280;53587;59.318;18.084;2023-05-24T12:16:41;101692.25;;;21.36;85.38
66689;BME280;53587;59.318;18.084;2023-05-24T12:19:06;101698.97;;;21.30;85.75
66689;BME280;53587;59.318;18.084;2023-05-24T12:21:32;101691.09;;;21.43;85.63
66689;BME280;53587;59.318;18.084;2023-05-24T12:24:13;101689.19;;;21.38;86.03
66689;BME280;53587;59.318;18.084;2023-05-24T12:26:39;101686.66;;;21.42;86.18
66689;BME280;53587;59.318;18.084;2023-05-24T12:29:05;101692.81;;;21.33;84.47
66689;BME280;53587;59.318;18.084;2023-05-24T12:31:30;101683.41;;;21.34;85.66
66689;BME280;53587;59.318;18.084;2023-05-24T12:33:56;101681.94;;;21.42;85.80
66689;BME280;53587;59.318;18.084;2023-05-24T12:36:21;101679.22;;;21.37;85.47
66689;BME280;53587;59.318;18.084;2023-05-24T12:38:47;101680.00;;;21.43;85.96
66689;BME280;53587;59.318;18.084;2023-05-24T12:41:12;101674.50;;;21.37;84.45
66689;BME280;53587;59.318;18.084;2023-05-24T12:43:38;101675.09;;;21.34;85.66
66689;BME280;53587;59.318;18.084;2023-05-24T12:46:03;101675.03;;;21.39;86.08
66689;BME280;53587;59.318;18.084;2023-05-24T12:48:28;101664.78;;;21.40;85.89
66689;BME280;53587;59.318;18.084;2023-05-24T12:50:54;101669.47;;;21.39;85.76
66689;BME280;53587;59.318;18.084;2023-05-24T12:53:19;101659.03;;;21.31;84.69
66689;BME280;53587;59.318;18.084;2023-05-24T12:55:48;101655.28;;;21.17;84.55
66689;BME280;53587;59.318;18.084;2023-05-24T12:58:14;101654.75;;;21.44;87.73
66689;BME280;53587;59.318;18.084;2023-05-24T13:00:41;101661.25;;;21.64;88.57